Time;durP1;ratioP1;P1;durP2;ratioP2;P2;SDS_P1;SDS_P2;PMS_P1;PMS_P2;Temp;Humidity;BMP_temperature;BMP_pressure;BME280_temperature;BME280_humidity;BME280_pressure;Samples;Min_cycle;Max_cycle;Signal;HPM_P1;HPM_P2
2022/10/22 00:00:17;;;;;;;16.20;4.63;;;14.50;99.90;;;;;;5062503;28;20075;-73
2022/10/22 00:02:43;;;;;;;20.52;4.93;;;14.50;99.90;;;;;;5058214;28;20025;-73
2022/10/22 00:05:10;;;;;;;15.93;7.10;;;14.50;99.90;;;;;;5062066;28;20033;-73
2022/10/22 00:07:35;;;;;;;19.67;9.18;;;14.50;99.90;;;;;;5060763;28;20035;-73
2022/10/22 00:10:02;;;;;;;16.08;7.47;;;14.40;99.90;;;;;;5063206;28;20531;-73
2022/10/22 00:12:28;;;;;;;18.90;6.43;;;14.40;99.90;;;;;;5060389;28;20033;-74
2022/10/22 00:14:53;;;;;;;20.48;5.40;;;14.40;99.90;;;;;;5063203;28;20040;-73
2022/10/22 00:17:19;;;;;;;25.75;5.13;;;14.30;99.90;;;;;;5060311;28;20032;-73
2022/10/22 00:19:45;;;;;;;24.27;5.00;;;14.40;99.90;;;;;;5064624;28;20097;-73
2022/10/22 00:22:11;;;;;;;16.00;4.72;;;14.40;99.90;;;;;;5063276;28;20025;-73
2022/10/22 00:24:38;;;;;;;20.88;6.45;;;14.30;99.90;;;;;;5061264;28;20074;-73
2022/10/22 00:27:05;;;;;;;14.68;5.18;;;14.30;99.90;;;;;;5062809;28;20078;-73
2022/10/22 00:29:31;;;;;;;22.27;5.93;;;14.30;99.90;;;;;;5062449;28;20016;-73
2022/10/22 00:31:57;;;;;;;25.58;6.03;;;14.20;99.90;;;;;;5065148;28;20456;-74
2022/10/22 00:34:23;;;;;;;26.60;5.90;;;14.30;99.90;;;;;;5061087;28;20040;-73
2022/10/22 00:36:49;;;;;;;20.88;5.22;;;14.30;99.90;;;;;;5064446;28;20032;-73
2022/10/22 00:39:17;;;;;;;14.45;5.97;;;14.30;99.90;;;;;;5063144;28;20062;-72
2022/10/22 00:41:45;;;;;;;21.13;5.85;;;14.20;99.90;;;;;;5065304;28;20079;-73
2022/10/22 00:44:48;;;;;;;17.52;5.88;;;14.20;99.90;;;;;;5065793;28;20108;-72
2022/10/22 00:47:14;;;;;;;;;;;14.20;99.90;;;;;;5063833;28;20205;-72
2022/10/22 00:49:43;;;;;;;16.90;5.13;;;14.30;99.90;;;;;;5064175;28;19909;-72
2022/10/22 00:52:08;;;;;;;16.50;4.72;;;14.30;99.90;;;;;;5067039;28;20484;-72
2022/10/22 00:54:36;;;;;;;24.23;5.13;;;14.40;99.90;;;;;;5066522;28;20033;-72
2022/10/22 00:57:02;;;;;;;19.08;5.82;;;14.40;99.90;;;;;;5062134;28;20041;-72
2022/10/22 00:59:28;;;;;;;16.33;6.20;;;14.30;99.90;;;;;;5064304;28;20114;-72
2022/10/22 01:01:54;;;;;;;18.88;5.85;;;14.30;99.90;;;;;;5069495;28;20032;-72
2022/10/22 01:04:20;;;;;;;17.30;6.45;;;14.30;99.90;;;;;;5070598;28;20032;-72
2022/10/22 01:06:46;;;;;;;19.63;5.22;;;14.20;99.90;;;;;;5062017;28;20025;-72
2022/10/22 01:09:38;;;;;;;24.90;5.78;;;14.20;99.90;;;;;;5063923;28;20473;-72
2022/10/22 01:12:22;;;;;;;20.75;5.20;;;14.20;99.90;;;;;;5064519;28;20476;-72
2022/10/22 01:14:53;;;;;;;23.25;5.18;;;14.20;99.90;;;;;;5064654;28;20036;-72
2022/10/22 01:17:54;;;;;;;19.27;5.05;;;14.20;99.90;;;;;;5065803;28;20452;-72
2022/10/22 01:20:59;;;;;;;18.27;5.80;;;14.20;99.90;;;;;;5065400;28;20101;-72
2022/10/22 01:23:45;;;;;;;20.77;6.60;;;14.20;99.90;;;;;;5075907;28;20057;-72
2022/10/22 01:26:32;;;;;;;29.90;6.85;;;14.10;99.90;;;;;;5062896;28;20025;-72
2022/10/22 01:29:01;;;;;;;18.83;6.40;;;14.10;99.90;;;;;;5064694;28;20055;-72
2022/10/22 01:31:31;;;;;;;19.00;6.22;;;14.10;99.90;;;;;;5061783;28;20021;-73
2022/10/22 01:33:59;;;;;;;14.73;5.47;;;14.10;99.90;;;;;;5062309;28;20040;-72
2022/10/22 01:36:26;;;;;;;18.10;5.57;;;14.20;99.90;;;;;;5064730;28;20107;-72
2022/10/22 01:38:53;;;;;;;12.85;5.82;;;14.20;99.90;;;;;;5073113;28;20066;-72
2022/10/22 01:41:18;;;;;;;19.70;6.90;;;14.20;99.90;;;;;;5074416;28;20039;-72
2022/10/22 01:43:44;;;;;;;16.98;5.80;;;14.20;99.90;;;;;;5059601;28;20017;-72
2022/10/22 01:46:11;;;;;;;21.83;5.97;;;14.10;99.90;;;;;;5054844;28;20032;-72
2022/10/22 01:49:03;;;;;;;21.33;5.45;;;14.10;99.90;;;;;;5054292;28;20164;-72
2022/10/22 01:51:50;;;;;;;18.30;5.78;;;14.10;99.90;;;;;;5054212;28;20287;-72
2022/10/22 01:54:16;;;;;;;20.58;4.78;;;14.10;99.90;;;;;;5053587;28;20017;-72
2022/10/22 01:56:44;;;;;;;24.58;4.47;;;14.10;99.90;;;;;;5053345;28;20063;-72
2022/10/22 01:59:33;;;;;;;20.55;5.50;;;14.10;99.90;;;;;;5053806;28;20078;-72
2022/10/22 02:02:34;;;;;;;12.63;5.25;;;14.10;99.90;;;;;;5055180;28;20021;-72
2022/10/22 02:05:07;;;;;;;11.02;5.20;;;14.10;99.90;;;;;;5053545;28;20029;-72
2022/10/22 02:07:44;;;;;;;;;;;14.10;99.90;;;;;;5054684;28;20074;-72
2022/10/22 02:10:11;;;;;;;14.52;5.93;;;14.10;99.90;;;;;;5054580;28;19955;-72
2022/10/22 02:12:39;;;;;;;9.57;5.63;;;14.10;99.90;;;;;;5053885;28;20398;-72
2022/10/22 02:15:08;;;;;;;12.60;7.53;;;14.10;99.90;;;;;;5055005;28;20404;-72
2022/10/22 02:17:37;;;;;;;15.93;7.45;;;14.00;99.90;;;;;;5073591;28;20036;-72
2022/10/22 02:20:09;;;;;;;22.13;7.35;;;14.00;99.90;;;;;;5073691;28;20689;-73
2022/10/22 02:22:35;;;;;;;13.63;7.50;;;14.00;99.90;;;;;;5074033;28;20017;-72
2022/10/22 02:25:02;;;;;;;29.88;6.57;;;14.00;99.90;;;;;;5073470;28;20686;-72
2022/10/22 02:27:45;;;;;;;16.60;5.90;;;14.00;99.90;;;;;;5074068;28;20028;-72
2022/10/22 02:30:15;;;;;;;;;;;14.00;99.90;;;;;;5073215;28;20162;-72
2022/10/22 02:32:43;;;;;;;16.13;5.85;;;14.00;99.90;;;;;;5072992;28;19908;-72
2022/10/22 02:35:12;;;;;;;15.43;6.95;;;14.00;99.90;;;;;;5059825;28;20037;-72
2022/10/22 02:37:38;;;;;;;12.20;7.03;;;14.00;99.90;;;;;;5053696;28;20021;-72
2022/10/22 02:40:05;;;;;;;14.73;6.55;;;14.10;99.90;;;;;;5053437;28;20025;-73
2022/10/22 02:42:32;;;;;;;17.15;7.13;;;14.10;99.90;;;;;;5052085;28;20037;-72
2022/10/22 02:44:57;;;;;;;9.95;5.72;;;14.10;99.90;;;;;;5053258;28;20017;-72
2022/10/22 02:47:23;;;;;;;12.85;6.80;;;14.10;99.90;;;;;;5052737;28;20426;-72
2022/10/22 02:49:48;;;;;;;13.48;5.78;;;14.10;99.90;;;;;;5064492;28;20036;-72
2022/10/22 02:52:14;;;;;;;18.75;7.93;;;14.10;99.90;;;;;;5072586;28;20020;-72
2022/10/22 02:54:39;;;;;;;10.63;6.68;;;14.20;99.90;;;;;;5071769;28;20571;-72
2022/10/22 02:57:05;;;;;;;16.38;6.47;;;14.20;99.90;;;;;;5071313;28;20035;-72
2022/10/22 02:59:31;;;;;;;15.95;7.30;;;14.20;99.90;;;;;;5073139;28;20067;-72
2022/10/22 03:01:56;;;;;;;15.65;6.32;;;14.20;99.90;;;;;;5073530;28;20103;-72
2022/10/22 03:04:22;;;;;;;18.85;7.47;;;14.20;99.90;;;;;;5071115;28;20092;-72
2022/10/22 03:06:48;;;;;;;16.90;6.97;;;14.20;99.90;;;;;;5065016;28;20028;-72
2022/10/22 03:09:13;;;;;;;13.50;7.22;;;14.20;99.90;;;;;;5072545;28;20063;-72
2022/10/22 03:11:39;;;;;;;21.00;7.88;;;14.20;99.90;;;;;;5070683;28;20056;-72
2022/10/22 03:14:05;;;;;;;15.27;6.68;;;14.20;99.90;;;;;;5073079;28;20031;-72
2022/10/22 03:16:30;;;;;;;17.85;7.53;;;14.20;99.90;;;;;;5072429;28;20036;-72
2022/10/22 03:18:56;;;;;;;14.00;6.35;;;14.20;99.90;;;;;;5071002;28;20429;-72
2022/10/22 03:21:39;;;;;;;12.75;7.00;;;14.20;99.90;;;;;;5052837;28;20048;-72
2022/10/22 03:24:10;;;;;;;19.08;7.20;;;14.30;99.90;;;;;;5052175;28;20104;-72
2022/10/22 03:26:38;;;;;;;12.20;6.95;;;14.30;99.90;;;;;;5052573;28;20059;-72
2022/10/22 03:29:04;;;;;;;16.58;6.97;;;14.30;99.90;;;;;;5050940;28;20163;-72
2022/10/22 03:31:29;;;;;;;18.10;6.70;;;14.30;99.90;;;;;;5066014;28;20111;-72
2022/10/22 03:33:55;;;;;;;17.38;6.72;;;14.30;99.90;;;;;;5070931;28;20028;-72
2022/10/22 03:36:21;;;;;;;17.48;6.63;;;14.40;99.90;;;;;;5052785;28;20032;-72
2022/10/22 03:38:47;;;;;;;19.50;7.30;;;14.40;99.90;;;;;;5051031;28;20063;-72
2022/10/22 03:41:12;;;;;;;16.13;6.60;;;14.40;99.90;;;;;;5051906;28;20021;-72
2022/10/22 03:43:39;;;;;;;14.02;7.28;;;14.40;99.90;;;;;;5051962;28;20060;-72
2022/10/22 03:46:05;;;;;;;15.68;6.95;;;14.40;99.90;;;;;;5052724;28;20022;-72
2022/10/22 03:48:31;;;;;;;15.57;7.20;;;14.40;99.90;;;;;;5050965;28;20095;-72
2022/10/22 03:50:56;;;;;;;13.18;6.65;;;14.40;99.90;;;;;;5052417;28;20056;-72
2022/10/22 03:53:22;;;;;;;17.60;7.25;;;14.40;99.90;;;;;;5051539;28;20047;-73
2022/10/22 03:55:48;;;;;;;15.07;6.70;;;14.50;99.90;;;;;;5064787;28;20389;-72
2022/10/22 03:58:13;;;;;;;14.05;6.90;;;14.40;99.90;;;;;;5050937;28;20032;-72
2022/10/22 04:00:39;;;;;;;14.25;6.70;;;14.40;99.90;;;;;;5051948;28;20025;-73
2022/10/22 04:03:04;;;;;;;13.20;5.93;;;14.50;99.90;;;;;;5051793;28;20021;-73
2022/10/22 04:05:32;;;;;;;17.52;7.72;;;14.50;99.90;;;;;;5064562;28;20028;-72
2022/10/22 04:07:58;;;;;;;18.20;6.70;;;14.50;99.90;;;;;;5072005;28;20529;-73
2022/10/22 04:10:24;;;;;;;15.93;5.88;;;14.50;99.90;;;;;;5072065;28;20099;-73
2022/10/22 04:12:50;;;;;;;18.63;6.78;;;14.60;99.90;;;;;;5071295;28;20107;-72
2022/10/22 04:15:16;;;;;;;10.63;5.68;;;14.50;99.90;;;;;;5072225;28;20530;-73
2022/10/22 04:17:41;;;;;;;12.32;6.40;;;14.50;99.90;;;;;;5070231;28;20434;-72
2022/10/22 04:20:08;;;;;;;17.15;6.15;;;14.60;99.90;;;;;;5071080;28;20350;-73
2022/10/22 04:22:34;;;;;;;15.23;6.80;;;14.60;99.90;;;;;;5053225;28;20036;-72
2022/10/22 04:25:00;;;;;;;16.23;5.80;;;14.60;99.90;;;;;;5051608;28;20493;-73
2022/10/22 04:27:29;;;;;;;10.88;5.18;;;14.50;99.90;;;;;;5057966;28;20028;-72
2022/10/22 04:29:55;;;;;;;9.20;5.25;;;14.60;99.90;;;;;;5072213;28;20017;-72
2022/10/22 04:32:21;;;;;;;13.52;5.85;;;14.60;99.90;;;;;;5071938;28;20035;-72
2022/10/22 04:34:46;;;;;;;9.95;5.45;;;14.60;99.90;;;;;;5064817;28;20378;-73
2022/10/22 04:37:12;;;;;;;17.83;5.93;;;14.60;99.90;;;;;;5051792;28;20029;-73
2022/10/22 04:39:37;;;;;;;14.85;5.03;;;14.60;99.90;;;;;;5052149;28;20414;-72
2022/10/22 04:42:03;;;;;;;12.80;5.70;;;14.70;99.90;;;;;;5051410;28;20078;-73
2022/10/22 04:44:29;;;;;;;12.57;5.78;;;14.60;99.90;;;;;;5051904;28;20107;-73
2022/10/22 04:46:54;;;;;;;11.07;5.30;;;14.60;99.90;;;;;;5050910;28;20021;-73
2022/10/22 04:49:20;;;;;;;15.68;5.13;;;14.60;99.90;;;;;;5051834;28;20436;-73
2022/10/22 04:51:45;;;;;;;18.05;5.60;;;14.70;99.90;;;;;;5051872;28;20070;-73
2022/10/22 04:54:11;;;;;;;13.60;5.28;;;14.70;99.90;;;;;;5051121;28;20376;-72
2022/10/22 04:56:37;;;;;;;15.02;5.15;;;14.60;99.90;;;;;;5065276;28;20082;-72
2022/10/22 04:59:06;;;;;;;10.10;5.03;;;14.60;99.90;;;;;;5060864;28;20067;-72
2022/10/22 05:01:37;;;;;;;26.05;5.07;;;14.60;99.90;;;;;;5061607;28;20036;-73
2022/10/22 05:04:05;;;;;;;13.10;5.28;;;14.60;99.90;;;;;;5054748;28;20362;-74
2022/10/22 05:06:32;;;;;;;8.45;4.20;;;14.70;99.90;;;;;;5072274;28;20024;-72
2022/10/22 05:09:25;;;;;;;10.82;4.68;;;14.70;99.90;;;;;;5065189;28;20025;-72
2022/10/22 05:11:52;;;;;;;14.13;5.22;;;14.70;99.90;;;;;;5054030;28;20389;-72
2022/10/22 05:14:22;;;;;;;10.00;3.90;;;14.60;99.90;;;;;;5054970;28;20104;-72
2022/10/22 05:16:49;;;;;;;10.07;4.10;;;14.60;99.90;;;;;;5055144;28;20036;-73
2022/10/22 05:19:23;;;;;;;11.18;4.07;;;14.70;99.90;;;;;;5066529;28;20024;-72
2022/10/22 05:21:51;;;;;;;8.95;3.58;;;14.70;99.90;;;;;;5074721;28;20052;-73
2022/10/22 05:24:16;;;;;;;11.80;4.43;;;14.70;99.90;;;;;;5073910;28;20052;-72
2022/10/22 05:26:42;;;;;;;12.15;4.50;;;14.80;99.90;;;;;;5073784;28;20459;-72
2022/10/22 05:29:08;;;;;;;13.02;3.72;;;14.80;99.90;;;;;;5063956;28;20021;-73
2022/10/22 05:31:33;;;;;;;14.02;4.45;;;14.80;99.90;;;;;;5068896;28;20024;-72
2022/10/22 05:33:59;;;;;;;11.32;4.82;;;14.80;99.90;;;;;;5074221;28;20115;-72
2022/10/22 05:36:25;;;;;;;11.73;3.85;;;14.80;99.90;;;;;;5069125;28;20476;-72
2022/10/22 05:38:50;;;;;;;10.57;3.85;;;14.80;99.90;;;;;;5074554;28;20418;-73
2022/10/22 05:41:19;;;;;;;14.95;4.60;;;14.80;99.90;;;;;;5071184;28;20036;-72
2022/10/22 05:43:44;;;;;;;10.32;3.90;;;14.80;99.90;;;;;;5062319;28;20017;-72
2022/10/22 05:46:14;;;;;;;11.40;3.22;;;14.80;99.90;;;;;;5062265;28;20035;-73
2022/10/22 05:48:40;;;;;;;12.77;3.65;;;14.80;99.90;;;;;;5063854;28;20029;-73
2022/10/22 05:51:08;;;;;;;13.43;4.25;;;14.80;99.90;;;;;;5063527;28;20025;-72
2022/10/22 05:53:36;;;;;;;16.50;3.60;;;14.90;99.90;;;;;;5057748;28;20116;-72
2022/10/22 05:56:03;;;;;;;9.45;3.20;;;14.80;99.90;;;;;;5053389;28;20433;-72
2022/10/22 05:58:29;;;;;;;17.67;4.35;;;14.90;99.90;;;;;;5054912;28;20556;-72
2022/10/22 06:01:20;;;;;;;17.25;4.13;;;14.80;99.90;;;;;;5062611;28;20033;-72
2022/10/22 06:03:47;;;;;;;9.20;3.25;;;14.80;99.90;;;;;;5073737;28;20041;-72
2022/10/22 06:06:27;;;;;;;12.85;3.88;;;14.80;99.90;;;;;;5060645;28;20462;-73
2022/10/22 06:08:54;;;;;;;10.52;3.15;;;14.80;99.90;;;;;;5052724;28;20013;-72
2022/10/22 06:11:21;;;;;;;13.43;3.47;;;14.80;99.90;;;;;;5070333;28;20024;-72
2022/10/22 06:13:48;;;;;;;12.27;3.50;;;14.80;99.90;;;;;;5073588;28;20538;-72
2022/10/22 06:16:14;;;;;;;8.57;3.35;;;14.80;99.90;;;;;;5072779;28;20496;-72
2022/10/22 06:18:40;;;;;;;8.90;4.05;;;14.80;99.90;;;;;;5066931;28;20037;-73
2022/10/22 06:21:10;;;;;;;10.38;3.78;;;14.80;99.90;;;;;;5062999;28;20492;-72
2022/10/22 06:23:37;;;;;;;11.55;3.50;;;14.90;99.90;;;;;;5073836;28;20108;-72
2022/10/22 06:26:04;;;;;;;10.98;3.08;;;14.90;99.90;;;;;;5073815;28;20060;-73
2022/10/22 06:28:30;;;;;;;11.27;3.83;;;15.00;99.90;;;;;;5074066;28;20435;-72
2022/10/22 06:30:57;;;;;;;12.52;3.25;;;15.00;99.90;;;;;;5073092;28;20574;-72
2022/10/22 06:33:23;;;;;;;7.70;2.65;;;15.00;99.90;;;;;;5073203;28;20116;-72
2022/10/22 06:35:49;;;;;;;10.75;3.15;;;15.10;99.90;;;;;;5072595;28;20115;-72
2022/10/22 06:38:14;;;;;;;11.50;3.10;;;15.00;99.90;;;;;;5073117;28;20020;-72
2022/10/22 06:40:42;;;;;;;6.53;2.80;;;15.10;99.90;;;;;;5073199;28;20103;-72
2022/10/22 06:43:08;;;;;;;13.05;3.53;;;15.10;99.90;;;;;;5073158;28;20477;-72
2022/10/22 06:45:34;;;;;;;11.93;3.83;;;15.10;99.90;;;;;;5070952;28;20029;-72
2022/10/22 06:47:59;;;;;;;12.10;3.25;;;15.10;99.90;;;;;;5060971;28;20043;-71
2022/10/22 06:50:25;;;;;;;8.20;2.80;;;15.10;99.90;;;;;;5060558;28;20033;-72
2022/10/22 06:52:51;;;;;;;9.43;3.63;;;15.10;99.90;;;;;;5056223;28;20037;-71
2022/10/22 06:55:16;;;;;;;8.77;3.15;;;15.20;99.90;;;;;;5057311;28;20024;-71
2022/10/22 06:57:42;;;;;;;11.88;3.20;;;15.10;99.90;;;;;;5064119;28;20489;-73
2022/10/22 07:00:08;;;;;;;11.77;3.60;;;15.20;99.90;;;;;;5061153;28;20032;-73
2022/10/22 07:02:34;;;;;;;7.93;2.70;;;15.30;99.90;;;;;;5061395;28;20370;-74
2022/10/22 07:04:59;;;;;;;11.70;3.10;;;15.30;99.90;;;;;;5060106;28;20059;-73
2022/10/22 07:07:25;;;;;;;12.75;2.95;;;15.30;99.90;;;;;;5060959;28;20024;-74
2022/10/22 07:09:50;;;;;;;9.05;2.67;;;15.40;99.90;;;;;;5060253;28;20032;-74
2022/10/22 07:12:16;;;;;;;13.95;3.25;;;15.40;99.90;;;;;;5065400;28;20032;-74
2022/10/22 07:14:42;;;;;;;11.00;3.10;;;15.40;99.90;;;;;;5061527;28;20118;-74
2022/10/22 07:17:08;;;;;;;16.95;3.63;;;15.40;99.90;;;;;;5056520;28;20127;-74
2022/10/22 07:19:34;;;;;;;10.77;3.47;;;15.40;99.90;;;;;;5058170;28;20495;-74
2022/10/22 07:21:59;;;;;;;10.68;2.47;;;15.50;99.90;;;;;;5064251;28;20028;-73
2022/10/22 07:24:25;;;;;;;11.13;2.70;;;15.40;99.90;;;;;;5061875;28;20017;-74
2022/10/22 07:26:51;;;;;;;12.98;2.60;;;15.50;99.90;;;;;;5061794;28;20043;-74
2022/10/22 07:29:16;;;;;;;12.63;2.50;;;15.50;99.90;;;;;;5062345;28;20375;-75
2022/10/22 07:31:42;;;;;;;17.75;3.10;;;15.50;99.90;;;;;;5060056;28;20029;-74
2022/10/22 07:34:08;;;;;;;12.48;3.00;;;15.50;99.90;;;;;;5058739;28;20021;-74
2022/10/22 07:36:34;;;;;;;8.88;2.70;;;15.50;99.90;;;;;;5057606;28;20037;-73
2022/10/22 07:39:00;;;;;;;13.27;2.75;;;15.60;99.90;;;;;;5062419;28;20029;-73
2022/10/22 07:41:28;;;;;;;16.95;3.33;;;15.60;99.90;;;;;;5059913;28;20018;-74
2022/10/22 07:43:54;;;;;;;11.27;2.92;;;15.60;99.90;;;;;;5057102;28;20030;-73
2022/10/22 07:46:20;;;;;;;13.20;2.90;;;15.70;99.90;;;;;;5062776;28;20399;-74
2022/10/22 07:48:46;;;;;;;12.15;2.95;;;15.70;99.90;;;;;;5059202;28;20175;-74
2022/10/22 07:51:11;;;;;;;12.73;2.78;;;15.70;99.90;;;;;;5064317;28;20407;-74
2022/10/22 07:53:37;;;;;;;10.15;2.63;;;15.70;99.90;;;;;;5058521;28;20476;-73
2022/10/22 07:56:03;;;;;;;7.03;2.63;;;15.70;99.90;;;;;;5056802;28;20032;-75
2022/10/22 07:58:29;;;;;;;14.52;2.63;;;15.80;99.90;;;;;;5055431;28;20104;-74
2022/10/22 08:00:56;;;;;;;12.05;3.20;;;15.80;99.90;;;;;;5059208;28;20100;-74
2022/10/22 08:03:22;;;;;;;14.35;2.88;;;15.90;99.90;;;;;;5056877;28;20025;-74
2022/10/22 08:05:47;;;;;;;11.98;2.70;;;15.90;99.90;;;;;;5057541;28;20054;-73
2022/10/22 08:08:14;;;;;;;7.85;2.38;;;15.90;99.90;;;;;;5058390;28;20033;-73
2022/10/22 08:10:41;;;;;;;6.97;2.53;;;16.00;99.90;;;;;;5054512;28;20050;-73
2022/10/22 08:13:07;;;;;;;12.50;3.10;;;16.00;99.90;;;;;;5062598;28;20021;-74
2022/10/22 08:15:33;;;;;;;11.20;2.50;;;16.10;99.90;;;;;;5063353;28;20040;-74
2022/10/22 08:17:58;;;;;;;10.82;2.90;;;16.10;99.90;;;;;;5061660;28;20128;-73
2022/10/22 08:20:24;;;;;;;18.95;3.97;;;16.10;99.90;;;;;;5063325;28;20025;-74
2022/10/22 08:22:50;;;;;;;10.05;2.95;;;16.20;99.90;;;;;;5066831;28;20099;-74
2022/10/22 08:25:17;;;;;;;12.13;2.67;;;16.20;99.90;;;;;;5058642;28;20020;-74
2022/10/22 08:27:43;;;;;;;8.30;2.53;;;16.20;99.90;;;;;;5062888;28;20493;-73
2022/10/22 08:30:09;;;;;;;10.27;2.65;;;16.20;99.90;;;;;;5060132;28;20029;-74
2022/10/22 08:32:34;;;;;;;10.55;2.30;;;16.20;99.90;;;;;;5058763;28;20028;-74
2022/10/22 08:35:00;;;;;;;9.43;2.80;;;16.20;99.90;;;;;;5059739;28;20041;-73
2022/10/22 08:37:26;;;;;;;13.65;2.92;;;16.20;99.90;;;;;;5064691;28;20465;-74
2022/10/22 08:39:52;;;;;;;10.05;2.88;;;16.30;99.90;;;;;;5070205;28;20385;-74
2022/10/22 08:42:39;;;;;;;15.63;2.95;;;16.30;99.90;;;;;;5068263;28;20025;-74
2022/10/22 08:45:11;;;;;;;16.10;2.75;;;16.40;99.90;;;;;;5070048;28;20032;-74
2022/10/22 08:47:43;;;;;;;;;;;16.50;99.90;;;;;;5067933;28;20032;-73
2022/10/22 08:50:14;;;;;;;9.63;2.65;;;16.60;99.90;;;;;;5064397;28;20262;-74
2022/10/22 08:52:45;;;;;;;7.22;2.42;;;16.80;99.90;;;;;;5068663;28;20039;-74
2022/10/22 08:55:14;;;;;;;8.52;2.42;;;16.80;99.90;;;;;;5064812;28;20111;-74
2022/10/22 08:57:53;;;;;;;8.60;2.20;;;16.80;99.90;;;;;;5056855;28;20036;-74
2022/10/22 09:00:33;;;;;;;9.48;2.97;;;16.90;99.90;;;;;;5061417;28;20116;-73
2022/10/22 09:03:02;;;;;;;11.73;2.95;;;16.90;99.90;;;;;;5059649;28;20013;-74
2022/10/22 09:06:00;;;;;;;11.77;2.58;;;17.00;99.90;;;;;;5053790;28;20059;-74
2022/10/22 09:08:26;;;;;;;8.52;2.40;;;17.00;99.90;;;;;;5058816;28;20016;-75
2022/10/22 09:11:12;;;;;;;9.73;2.67;;;17.00;99.90;;;;;;5059610;28;20392;-74
2022/10/22 09:13:44;;;;;;;9.57;2.10;;;17.00;99.90;;;;;;5058446;28;20497;-74
2022/10/22 09:16:18;;;;;;;8.10;2.20;;;17.10;99.90;;;;;;5060188;28;20140;-74
2022/10/22 09:19:11;;;;;;;10.35;2.22;;;17.10;99.90;;;;;;5056746;28;20029;-73
2022/10/22 09:21:57;;;;;;;13.00;2.85;;;17.10;99.90;;;;;;5058555;28;20044;-76
2022/10/22 09:24:32;;;;;;;10.90;2.30;;;17.20;99.90;;;;;;5058105;28;20021;-74
2022/10/22 09:26:58;;;;;;;8.07;2.20;;;17.20;99.90;;;;;;5062149;28;20028;-74
2022/10/22 09:29:31;;;;;;;9.25;1.77;;;17.30;99.90;;;;;;5063646;28;20415;-74
2022/10/22 09:31:56;;;;;;;9.48;2.10;;;17.30;99.90;;;;;;5024576;28;20096;-74
2022/10/22 09:34:22;;;;;;;8.95;2.13;;;17.40;99.90;;;;;;5055441;28;20587;-74
2022/10/22 09:37:00;;;;;;;13.52;2.17;;;17.40;99.90;;;;;;5053388;28;20040;-74
2022/10/22 09:39:30;;;;;;;9.77;2.33;;;17.40;99.90;;;;;;5055406;28;20020;-74
2022/10/22 09:41:55;;;;;;;9.27;2.13;;;17.50;99.90;;;;;;5053268;28;20039;-73
2022/10/22 09:44:21;;;;;;;10.23;2.50;;;17.50;99.90;;;;;;5054431;28;20017;-73
2022/10/22 09:46:47;;;;;;;7.20;1.67;;;17.50;99.90;;;;;;5051927;28;20123;-74
2022/10/22 09:49:16;;;;;;;7.55;1.80;;;17.50;99.90;;;;;;5055004;28;20021;-74
2022/10/22 09:51:56;;;;;;;7.90;2.25;;;17.50;99.90;;;;;;5052456;28;20484;-74
2022/10/22 09:54:31;;;;;;;9.15;2.17;;;17.50;99.90;;;;;;5055544;28;20031;-74
2022/10/22 09:57:12;;;;;;;11.88;2.17;;;17.60;99.90;;;;;;5055305;28;20032;-74
2022/10/22 09:59:41;;;;;;;12.05;5.25;;;17.60;99.90;;;;;;5056573;28;20033;-74
2022/10/22 10:02:22;;;;;;;47.28;19.50;;;17.70;99.90;;;;;;5051630;28;20103;-74
2022/10/22 10:04:51;;;;;;;81.30;25.85;;;17.70;99.90;;;;;;5052211;28;20107;-74
2022/10/22 10:07:26;;;;;;;14.52;3.97;;;17.80;99.90;;;;;;5052751;28;20385;-74
2022/10/22 10:09:53;;;;;;;6.95;1.70;;;17.80;99.90;;;;;;5052732;28;20033;-75
2022/10/22 10:12:33;;;;;;;9.48;1.85;;;17.80;99.90;;;;;;5056699;28;20393;-74
2022/10/22 10:15:03;;;;;;;9.75;2.67;;;17.80;99.90;;;;;;5056146;28;20044;-74
2022/10/22 10:17:46;;;;;;;11.18;2.30;;;17.90;99.90;;;;;;5055769;28;20025;-74
2022/10/22 10:20:34;;;;;;;8.02;2.03;;;17.80;99.90;;;;;;5052023;28;20075;-74
2022/10/22 10:23:23;;;;;;;9.85;2.33;;;17.90;99.90;;;;;;5056134;28;20100;-74
2022/10/22 10:26:26;;;;;;;9.10;2.70;;;18.00;99.90;;;;;;5052779;28;20025;-74
2022/10/22 10:29:07;;;;;;;11.80;2.28;;;18.10;99.90;;;;;;5052988;28;20124;-75
2022/10/22 10:31:35;;;;;;;10.23;2.28;;;18.10;99.90;;;;;;5057295;28;20028;-74
2022/10/22 10:34:39;;;;;;;11.60;2.47;;;18.20;99.90;;;;;;5058522;28;20099;-74
2022/10/22 10:37:25;;;;;;;8.68;2.20;;;18.20;99.90;;;;;;5045648;28;20037;-75
2022/10/22 10:40:24;;;;;;;10.07;2.13;;;18.40;99.90;;;;;;5057931;28;20485;-74
2022/10/22 10:43:23;;;;;;;10.68;2.50;;;18.40;99.90;;;;;;5059863;28;20061;-74
2022/10/22 10:46:13;;;;;;;10.55;2.58;;;18.30;99.90;;;;;;5055481;28;20070;-74
2022/10/22 10:48:42;;;;;;;11.93;2.35;;;18.30;99.90;;;;;;5059918;28;20051;-74
2022/10/22 10:51:19;;;;;;;13.55;2.13;;;18.20;99.90;;;;;;5062799;28;20029;-74
2022/10/22 10:54:11;;;;;;;8.70;1.98;;;18.30;99.90;;;;;;5064749;28;20025;-74
2022/10/22 10:56:51;;;;;;;8.02;2.28;;;18.30;99.90;;;;;;5060261;28;20452;-74
2022/10/22 10:59:27;;;;;;;10.32;2.22;;;18.40;99.90;;;;;;5057374;28;20029;-74
2022/10/22 11:02:11;;;;;;;14.85;2.42;;;18.40;99.90;;;;;;5060613;28;20473;-74
2022/10/22 11:04:49;;;;;;;7.63;2.35;;;18.50;99.90;;;;;;5052207;28;20025;-74
2022/10/22 11:07:22;;;;;;;10.35;2.47;;;18.40;99.90;;;;;;5051818;28;20477;-74
2022/10/22 11:09:54;;;;;;;10.20;2.58;;;18.50;99.90;;;;;;5052477;28;20021;-73
2022/10/22 11:12:28;;;;;;;17.50;3.10;;;18.60;99.90;;;;;;5051806;28;20157;-74
2022/10/22 11:15:25;;;;;;;13.05;2.15;;;18.60;99.90;;;;;;5053080;28;20021;-74
2022/10/22 11:17:54;;;;;;;12.27;2.22;;;18.50;99.90;;;;;;5052923;28;20073;-74
2022/10/22 11:20:34;;;;;;;6.95;2.00;;;18.60;99.90;;;;;;5058957;28;20017;-76
2022/10/22 11:23:16;;;;;;;6.03;1.85;;;18.50;99.90;;;;;;5055314;28;20025;-74
2022/10/22 11:25:46;;;;;;;7.07;1.83;;;18.60;99.90;;;;;;5054790;28;20028;-74
2022/10/22 11:28:36;;;;;;;5.40;2.00;;;18.70;99.90;;;;;;5063116;28;20021;-74
2022/10/22 11:31:13;;;;;;;6.95;2.30;;;18.60;99.90;;;;;;5059393;28;20031;-74
2022/10/22 11:33:51;;;;;;;5.68;1.77;;;18.60;99.90;;;;;;5059313;28;20025;-74
2022/10/22 11:36:21;;;;;;;12.18;2.17;;;18.50;99.90;;;;;;5062574;28;20165;-74
2022/10/22 11:38:48;;;;;;;12.52;2.25;;;18.50;99.90;;;;;;5063458;28;20019;-75
2022/10/22 11:41:17;;;;;;;5.65;1.67;;;18.50;99.90;;;;;;5057925;28;20094;-74
2022/10/22 11:44:06;;;;;;;11.27;2.13;;;18.50;99.90;;;;;;5059956;28;20021;-74
2022/10/22 11:46:52;;;;;;;5.93;2.00;;;18.50;99.90;;;;;;5066001;28;20028;-75
2022/10/22 11:49:26;;;;;;;11.45;2.30;;;18.50;99.90;;;;;;5062832;28;20017;-76
2022/10/22 11:52:20;;;;;;;10.25;2.60;;;18.40;99.90;;;;;;5055837;28;20052;-74
2022/10/22 11:54:46;;;;;;;11.10;2.58;;;18.60;99.90;;;;;;5063753;28;20041;-74
2022/10/22 11:57:14;;;;;;;13.18;2.20;;;18.80;99.90;;;;;;5060368;28;20090;-74
2022/10/22 11:59:50;;;;;;;8.13;1.98;;;19.00;99.90;;;;;;5059083;28;20036;-73
2022/10/22 12:02:42;;;;;;;7.90;1.52;;;18.90;99.90;;;;;;5066707;28;20016;-75
2022/10/22 12:05:23;;;;;;;8.88;1.98;;;18.90;99.90;;;;;;5064540;28;20607;-74
2022/10/22 12:08:12;;;;;;;11.13;1.92;;;18.80;99.90;;;;;;5056319;28;20485;-74
2022/10/22 12:11:10;;;;;;;10.70;1.83;;;18.80;99.90;;;;;;5066664;28;20032;-74
2022/10/22 12:14:00;;;;;;;15.30;2.63;;;18.90;99.90;;;;;;5064824;28;20056;-74
2022/10/22 12:16:28;;;;;;;9.30;1.60;;;19.10;99.90;;;;;;5065055;28;20042;-74
2022/10/22 12:19:03;;;;;;;6.70;1.92;;;19.00;99.90;;;;;;5064024;28;20561;-74
2022/10/22 12:21:32;;;;;;;13.48;3.10;;;19.00;99.90;;;;;;5062682;28;20025;-74
2022/10/22 12:23:59;;;;;;;8.25;2.85;;;19.00;99.90;;;;;;5061936;28;20116;-74
2022/10/22 12:26:28;;;;;;;12.55;4.32;;;19.00;99.90;;;;;;5064869;28;20032;-75
2022/10/22 12:29:05;;;;;;;16.60;3.83;;;19.00;99.90;;;;;;5064618;28;20032;-74
2022/10/22 12:31:35;;;;;;;10.85;2.00;;;19.00;99.90;;;;;;5064930;28;20021;-73
2022/10/22 12:34:01;;;;;;;11.10;2.30;;;19.00;99.90;;;;;;5064438;28;20032;-74
2022/10/22 12:36:33;;;;;;;8.40;2.38;;;19.00;99.90;;;;;;5065833;28;20098;-74
2022/10/22 12:39:00;;;;;;;7.93;3.33;;;19.00;99.90;;;;;;5069103;28;20027;-74
2022/10/22 12:41:34;;;;;;;9.40;2.90;;;19.00;99.90;;;;;;5060704;28;20028;-74
2022/10/22 12:44:01;;;;;;;7.88;2.67;;;19.00;99.90;;;;;;5063263;28;20058;-74
2022/10/22 12:46:31;;;;;;;7.63;2.63;;;18.90;99.90;;;;;;5066488;28;20024;-75
2022/10/22 12:49:00;;;;;;;9.18;3.10;;;18.90;99.90;;;;;;5068724;28;20465;-74
2022/10/22 12:51:27;;;;;;;10.85;3.35;;;18.90;99.90;;;;;;5067869;28;20021;-73
2022/10/22 12:54:00;;;;;;;6.30;2.90;;;19.10;99.90;;;;;;5059705;28;20025;-75
2022/10/22 12:56:28;;;;;;;8.52;2.25;;;19.20;99.90;;;;;;5065398;28;20100;-74
2022/10/22 12:58:58;;;;;;;6.85;1.80;;;19.30;99.90;;;;;;5063560;28;20023;-74